createdAt,value
2018-11-23T00:04:13.105Z,100881.31
2018-11-23T00:09:15.510Z,100887.04
2018-11-23T00:14:18.021Z,100884.84
2018-11-23T00:19:20.430Z,100884.84
2018-11-23T00:24:23.186Z,100897.56
2018-11-23T00:29:25.568Z,100895.36
2018-11-23T00:34:28.067Z,100915.11
2018-11-23T00:39:30.444Z,100909.86
2018-11-23T00:44:33.000Z,100909.50
2018-11-23T00:49:35.515Z,100902.97
2018-11-23T00:54:37.908Z,100901.67
2018-11-23T00:59:40.305Z,100899.89
2018-11-23T01:04:42.785Z,100908.14
2018-11-23T01:09:45.148Z,100905.53
2018-11-23T01:14:47.612Z,100909.03
2018-11-23T01:19:50.055Z,100906.81
2018-11-23T01:24:52.535Z,100912.05
2018-11-23T01:29:54.992Z,100917.69
2018-11-23T01:34:57.370Z,100914.25
2018-11-23T01:40:00.064Z,100916.03
2018-11-23T01:45:02.496Z,100915.63
2018-11-23T01:50:09.564Z,100912.98
2018-11-23T01:55:12.831Z,100914.72
2018-11-23T02:00:23.350Z,100909.06
2018-11-23T02:05:25.748Z,100907.37
2018-11-23T02:10:28.259Z,100909.45
2018-11-23T02:15:30.573Z,100912.56
2018-11-23T02:20:33.555Z,100906.39
2018-11-23T02:25:36.030Z,100903.81
2018-11-23T02:30:38.513Z,100906.88
2018-11-23T02:35:40.935Z,100908.14
2018-11-23T02:40:43.854Z,100908.98
2018-11-23T02:45:46.330Z,100904.70
2018-11-23T02:50:48.747Z,100906.45
2018-11-23T02:55:51.307Z,100898.52
2018-11-23T03:00:53.880Z,100899.91
2018-11-23T03:05:56.300Z,100900.25
2018-11-23T03:10:58.842Z,100901.19
2018-11-23T03:16:01.228Z,100909.52
2018-11-23T03:21:03.763Z,100905.99
2018-11-23T03:26:07.558Z,100906.02
2018-11-23T03:36:25.899Z,100900.81
2018-11-23T03:41:28.446Z,100901.69
2018-11-23T03:46:31.744Z,100905.17
2018-11-23T03:51:34.261Z,100899.47
2018-11-23T03:56:37.507Z,100900.34
2018-11-23T04:01:39.999Z,100908.63
2018-11-23T04:06:42.558Z,100898.64
2018-11-23T04:11:45.117Z,100899.11
2018-11-23T04:16:47.478Z,100884.19
2018-11-23T04:21:50.359Z,100888.59
2018-11-23T04:26:52.952Z,100880.70
2018-11-23T04:32:03.314Z,100875.94
2018-11-23T04:37:05.817Z,100880.75
2018-11-23T04:47:21.627Z,100889.99
2018-11-23T04:52:24.398Z,100893.91
2018-11-23T04:57:27.201Z,100886.45
2018-11-23T05:02:29.908Z,100885.63
2018-11-23T05:07:32.615Z,100885.19
2018-11-23T05:12:35.214Z,100882.56
2018-11-23T05:17:37.674Z,100882.58
2018-11-23T05:22:41.365Z,100880.42
2018-11-23T05:27:43.759Z,100881.29
2018-11-23T05:32:46.265Z,100875.24
2018-11-23T05:37:48.673Z,100884.37
2018-11-23T05:42:52.470Z,100884.73
2018-11-23T05:47:54.932Z,100875.20
2018-11-23T05:52:57.422Z,100874.33
2018-11-23T05:58:00.313Z,100870.83
2018-11-23T06:03:02.802Z,100873.90
2018-11-23T06:08:05.368Z,100876.48
2018-11-23T06:13:07.922Z,100872.98
2018-11-23T06:18:10.638Z,100877.36
2018-11-23T06:23:13.115Z,100878.66
2018-11-23T06:28:15.550Z,100871.66
2018-11-23T06:33:35.871Z,100873.44
2018-11-23T06:38:38.404Z,100880.83
2018-11-23T06:43:41.674Z,100879.09
2018-11-23T06:48:44.104Z,100879.94
2018-11-23T06:53:46.661Z,100882.13
2018-11-23T06:58:50.061Z,100883.38
2018-11-23T07:03:52.732Z,100889.95
2018-11-23T07:08:55.209Z,100886.00
2018-11-23T07:14:03.763Z,100886.42
2018-11-23T07:19:00.179Z,100888.11
2018-11-23T07:24:02.701Z,100910.86
2018-11-23T07:29:06.774Z,100916.08
2018-11-23T07:34:09.217Z,100903.88
2018-11-23T07:39:23.097Z,100900.64
2018-11-23T07:44:25.476Z,100902.41
2018-11-23T07:49:27.874Z,100893.22
2018-11-23T07:54:30.253Z,100895.78
2018-11-23T07:59:32.721Z,100902.34
2018-11-23T08:04:35.808Z,100904.81
2018-11-23T08:09:38.849Z,100898.80
2018-11-23T08:14:41.452Z,100891.25
2018-11-23T08:19:47.416Z,100882.57
2018-11-23T08:24:46.463Z,100884.26
2018-11-23T08:29:48.809Z,100891.58
2018-11-23T08:34:51.381Z,100898.61
2018-11-23T08:39:53.841Z,100886.86
2018-11-23T08:44:56.280Z,100885.47
2018-11-23T08:49:58.705Z,100886.73
2018-11-23T08:55:01.208Z,100887.99
2018-11-23T09:00:06.275Z,100883.15
2018-11-23T09:05:08.816Z,100880.91
2018-11-23T09:10:14.425Z,100865.64
2018-11-23T09:15:17.568Z,100867.28
2018-11-23T09:20:19.604Z,100879.88
2018-11-23T09:25:22.921Z,100867.09
2018-11-23T09:30:26.143Z,100863.06
2018-11-23T09:35:28.871Z,100863.91
2018-11-23T09:40:31.331Z,100866.41
2018-11-23T09:45:34.288Z,100858.84
2018-11-23T09:50:36.795Z,100860.98
2018-11-23T09:55:39.251Z,100858.70
2018-11-23T10:00:41.713Z,100848.55
2018-11-23T10:05:44.145Z,100846.34
2018-11-23T10:10:46.529Z,100840.42
2018-11-23T10:15:49.384Z,100837.28
2018-11-23T10:20:51.876Z,100831.45
2018-11-23T10:25:54.453Z,100819.55
2018-11-23T10:30:56.902Z,100815.95
2018-11-23T10:35:59.523Z,100818.09
2018-11-23T10:41:02.111Z,100803.18
2018-11-23T10:46:04.599Z,100791.51
2018-11-23T10:51:07.059Z,100795.23
2018-11-23T10:56:09.470Z,100780.30
2018-11-23T11:01:17.671Z,100769.52
2018-11-23T11:06:25.625Z,100759.39
2018-11-23T11:11:28.199Z,100759.80
2018-11-23T11:16:31.079Z,100754.90
2018-11-23T11:21:33.969Z,100755.13
2018-11-23T11:26:36.402Z,100749.77
2018-11-23T11:31:38.858Z,100746.05
2018-11-23T11:36:41.249Z,100739.28
2018-11-23T11:41:43.639Z,100722.73
2018-11-23T11:46:46.054Z,100720.75
2018-11-23T11:51:48.670Z,100707.05
2018-11-23T11:56:51.356Z,100701.83
2018-11-23T12:01:53.829Z,100697.45
2018-11-23T12:06:56.888Z,100690.47
2018-11-23T12:11:59.433Z,100691.45
2018-11-23T12:17:02.005Z,100687.34
2018-11-23T12:22:04.712Z,100692.89
2018-11-23T12:27:07.043Z,100674.91
2018-11-23T12:32:09.483Z,100669.28
2018-11-23T12:37:11.875Z,100673.47
2018-11-23T12:42:14.388Z,100656.45
2018-11-23T12:47:16.784Z,100653.14
2018-11-23T12:52:19.144Z,100660.08
2018-11-23T12:57:22.574Z,100662.09
2018-11-23T13:02:25.238Z,100654.36
2018-11-23T13:07:27.753Z,100647.39
2018-11-23T13:12:30.201Z,100642.84
2018-11-23T13:17:32.659Z,100620.08
2018-11-23T13:22:35.480Z,100617.44
2018-11-23T13:27:38.457Z,100619.34
2018-11-23T13:32:41.781Z,100623.89
2018-11-23T13:37:44.484Z,100607.81
2018-11-23T13:42:47.386Z,100604.84
2018-11-23T13:47:49.875Z,100610.83
2018-11-23T13:52:54.073Z,100614.36
2018-11-23T13:57:56.572Z,100603.50
2018-11-23T14:02:59.089Z,100591.97
2018-11-23T14:08:02.783Z,100588.14
2018-11-23T14:13:11.332Z,100581.45
2018-11-23T14:18:07.802Z,100584.55
2018-11-23T14:23:10.271Z,100590.09
2018-11-23T14:28:12.757Z,100592.39
2018-11-23T14:33:15.251Z,100586.86
2018-11-23T14:38:17.639Z,100584.97
2018-11-23T14:43:20.091Z,100590.37
2018-11-23T14:48:22.474Z,100590.14
2018-11-23T14:53:24.933Z,100586.31
2018-11-23T14:58:27.378Z,100581.59
2018-11-23T15:03:29.816Z,100579.75
2018-11-23T15:08:32.222Z,100582.67
2018-11-23T15:13:34.768Z,100589.40
2018-11-23T15:18:37.211Z,100582.78
2018-11-23T15:23:39.719Z,100588.81
2018-11-23T15:28:42.573Z,100583.53
2018-11-23T15:33:45.092Z,100588.58
2018-11-23T15:38:47.528Z,100578.59
2018-11-23T15:43:50.333Z,100588.45
2018-11-23T15:48:52.753Z,100584.78
2018-11-23T15:53:55.730Z,100585.33
2018-11-23T15:59:04.428Z,100572.84
2018-11-23T16:04:07.014Z,100586.86
2018-11-23T16:09:11.616Z,100583.23
2018-11-23T16:14:14.086Z,100587.45
2018-11-23T16:19:16.999Z,100581.78
2018-11-23T16:24:19.565Z,100579.56
2018-11-23T16:29:22.149Z,100579.11
2018-11-23T16:34:24.659Z,100576.44
2018-11-23T16:39:27.120Z,100571.67
2018-11-23T16:44:29.489Z,100568.13
2018-11-23T16:49:31.903Z,100552.48
2018-11-23T16:54:35.777Z,100558.66
2018-11-23T16:59:38.549Z,100545.13
2018-11-23T17:04:40.905Z,100551.17
2018-11-23T17:09:44.179Z,100538.10
2018-11-23T17:14:45.764Z,100531.98
2018-11-23T17:19:48.151Z,100521.27
2018-11-23T17:24:50.739Z,100523.95
2018-11-23T17:29:53.742Z,100519.20
2018-11-23T17:34:56.454Z,100524.55
2018-11-23T17:39:58.938Z,100519.20
2018-11-23T17:45:01.451Z,100522.32
2018-11-23T17:50:05.728Z,100526.59
2018-11-23T17:55:10.043Z,100521.22
2018-11-23T18:00:18.697Z,100508.67
2018-11-23T18:05:21.980Z,100505.59
2018-11-23T18:10:26.750Z,100495.11
2018-11-23T18:15:30.436Z,100485.86
2018-11-23T18:20:34.809Z,100477.06
2018-11-23T18:25:38.916Z,100474.92
2018-11-23T18:30:41.393Z,100470.08
2018-11-23T18:35:43.882Z,100461.27
2018-11-23T18:40:46.342Z,100446.34
2018-11-23T18:45:48.781Z,100439.37
2018-11-23T18:50:51.441Z,100435.97
2018-11-23T18:55:54.485Z,100425.95
2018-11-23T19:00:56.975Z,100430.66
2018-11-23T19:05:59.758Z,100425.80
2018-11-23T19:11:02.306Z,100419.29
2018-11-23T19:16:04.965Z,100411.75
2018-11-23T19:21:07.516Z,100398.29
2018-11-23T19:26:10.205Z,100389.89
2018-11-23T19:31:12.839Z,100393.53
2018-11-23T19:36:15.739Z,100409.52
2018-11-23T19:41:18.246Z,100410.06
2018-11-23T19:46:20.686Z,100404.31
2018-11-23T19:51:24.728Z,100415.69
2018-11-23T19:56:27.139Z,100412.51
2018-11-23T20:01:29.625Z,100407.59
2018-11-23T20:06:32.076Z,100383.55
2018-11-23T20:11:34.678Z,100379.11
2018-11-23T20:16:37.072Z,100370.70
2018-11-23T20:21:39.536Z,100353.20
2018-11-23T20:26:42.004Z,100337.06
2018-11-23T20:31:44.449Z,100326.53
2018-11-23T20:36:46.912Z,100323.92
2018-11-23T20:41:49.459Z,100322.16
2018-11-23T20:46:52.010Z,100322.59
2018-11-23T20:51:54.445Z,100323.00
2018-11-23T20:56:56.929Z,100314.20
2018-11-23T21:01:59.379Z,100307.33
2018-11-23T21:07:01.940Z,100301.61
2018-11-23T21:12:04.692Z,100290.17
2018-11-23T21:17:07.466Z,100281.95
2018-11-23T21:22:09.985Z,100282.67
2018-11-23T21:27:12.485Z,100263.97
2018-11-23T21:32:15.234Z,100264.37
2018-11-23T21:37:17.630Z,100249.63
2018-11-23T21:42:20.122Z,100253.91
2018-11-23T21:47:22.629Z,100247.75
2018-11-23T21:52:25.225Z,100235.09
2018-11-23T21:57:27.660Z,100233.72
2018-11-23T22:02:30.162Z,100225.44
2018-11-23T22:07:32.633Z,100219.25
2018-11-23T22:12:35.238Z,100209.30
2018-11-23T22:17:37.898Z,100209.75
2018-11-23T22:22:40.421Z,100206.91
2018-11-23T22:27:43.234Z,100203.08
2018-11-23T22:32:45.685Z,100198.27
2018-11-23T22:37:48.173Z,100194.27
2018-11-23T22:42:52.645Z,100195.69
2018-11-23T22:47:56.448Z,100178.31
2018-11-23T22:52:58.902Z,100172.37
2018-11-23T22:58:01.314Z,100166.31
2018-11-23T23:03:05.493Z,100157.67
2018-11-23T23:08:09.028Z,100143.92
2018-11-23T23:13:13.601Z,100138.30
2018-11-23T23:18:16.600Z,100130.02
2018-11-23T23:23:21.215Z,100116.98
2018-11-23T23:28:25.557Z,100112.77
2018-11-23T23:33:30.021Z,100111.45
2018-11-23T23:38:34.162Z,100112.77
2018-11-23T23:43:37.697Z,100118.89
2018-11-23T23:48:42.392Z,100117.17
2018-11-23T23:53:45.013Z,100115.50
2018-11-23T23:58:47.457Z,100110.59
